createdAt,value
2019-04-01T00:00:53.945Z,44.68
2019-04-01T00:01:53.941Z,44.56
2019-04-01T00:02:53.887Z,44.47
2019-04-01T00:03:53.897Z,44.37
2019-04-01T00:04:53.867Z,44.37
2019-04-01T00:05:53.863Z,44.57
2019-04-01T00:06:53.882Z,44.89
2019-04-01T00:07:53.836Z,44.57
2019-04-01T00:08:53.844Z,44.57
2019-04-01T00:09:53.826Z,44.68
2019-04-01T00:10:53.801Z,44.47
2019-04-01T00:11:53.811Z,44.57
2019-04-01T00:12:53.786Z,44.26
2019-04-01T00:13:53.778Z,45.09
2019-04-01T00:14:53.773Z,44.89
2019-04-01T00:15:53.743Z,44.47
2019-04-01T00:16:53.783Z,44.37
2019-04-01T00:17:53.727Z,44.89
2019-04-01T00:19:02.831Z,44.78
2019-04-01T00:19:54.703Z,44.78
2019-04-01T00:20:53.695Z,44.89
2019-04-01T00:21:53.701Z,44.56
2019-04-01T00:22:53.781Z,44.96
2019-04-01T00:23:53.666Z,44.47
2019-04-01T00:24:53.667Z,44.89
2019-04-01T00:25:53.636Z,44.99
2019-04-01T00:26:53.660Z,45.09
2019-04-01T00:27:53.635Z,45.50
2019-04-01T00:28:53.618Z,45.71
2019-04-01T00:29:53.594Z,45.71
2019-04-01T00:30:53.582Z,45.81
2019-04-01T00:31:53.586Z,45.40
2019-04-01T00:32:53.567Z,45.81
2019-04-01T00:33:53.560Z,45.50
2019-04-01T00:34:53.543Z,45.50
2019-04-01T00:35:53.531Z,45.50
2019-04-01T00:36:53.548Z,45.61
2019-04-01T00:37:53.504Z,45.50
2019-04-01T00:38:53.495Z,46.04
2019-04-01T00:39:53.664Z,46.33
2019-04-01T00:40:53.497Z,46.23
2019-04-01T00:41:53.462Z,46.23
2019-04-01T00:42:53.480Z,46.33
2019-04-01T00:43:53.443Z,45.73
2019-04-01T00:44:53.445Z,45.83
2019-04-01T00:45:53.513Z,46.12
2019-04-01T00:46:53.411Z,46.64
2019-04-01T00:47:53.419Z,46.12
2019-04-01T00:48:53.416Z,46.45
2019-04-01T00:49:53.389Z,46.25
2019-04-01T00:50:53.370Z,46.14
2019-04-01T00:51:53.373Z,46.02
2019-04-01T00:52:53.419Z,46.25
2019-04-01T00:53:53.332Z,46.25
2019-04-01T00:54:53.324Z,46.45
2019-04-01T00:55:53.309Z,46.14
2019-04-01T00:56:53.306Z,46.35
2019-04-01T00:57:53.315Z,46.77
2019-04-01T00:58:53.274Z,47.07
2019-04-01T00:59:53.285Z,47.17
2019-04-01T01:00:53.258Z,47.17
2019-04-01T01:01:53.251Z,47.38
2019-04-01T01:02:53.239Z,46.77
2019-04-01T01:03:53.248Z,46.77
2019-04-01T01:04:53.214Z,47.07
2019-04-01T01:05:53.245Z,47.07
2019-04-01T01:06:53.211Z,47.59
2019-04-01T01:07:53.181Z,47.59
2019-04-01T01:08:53.186Z,47.59
2019-04-01T01:09:53.172Z,47.38
2019-04-01T01:10:53.146Z,46.97
2019-04-01T01:11:53.152Z,46.97
2019-04-01T01:12:53.114Z,47.17
2019-04-01T01:13:53.128Z,47.17
2019-04-01T01:14:53.120Z,47.49
2019-04-01T01:15:53.094Z,47.49
2019-04-01T01:16:53.080Z,47.69
2019-04-01T01:17:53.082Z,47.17
2019-04-01T01:18:53.115Z,47.49
2019-04-01T01:19:53.054Z,47.30
2019-04-01T01:20:53.027Z,47.81
2019-04-01T01:21:53.018Z,47.09
2019-04-01T01:22:53.006Z,47.30
2019-04-01T01:23:53.026Z,47.30
2019-04-01T01:24:52.988Z,47.90
2019-04-01T01:25:52.972Z,47.51
2019-04-01T01:26:52.970Z,47.61
2019-04-01T01:27:52.986Z,48.02
2019-04-01T01:28:52.982Z,47.92
2019-04-01T01:29:52.928Z,48.02
2019-04-01T01:30:52.929Z,47.71
2019-04-01T01:31:52.908Z,48.02
2019-04-01T01:32:52.899Z,48.02
2019-04-01T01:33:52.915Z,47.92
2019-04-01T01:34:52.901Z,48.54
2019-04-01T01:35:52.868Z,48.02
2019-04-01T01:36:52.866Z,48.44
2019-04-01T01:37:52.840Z,48.65
2019-04-01T01:38:52.834Z,47.81
2019-04-01T01:39:53.104Z,48.44
2019-04-01T01:40:52.807Z,48.54
2019-04-01T01:41:52.799Z,48.44
2019-04-01T01:42:52.809Z,48.44
2019-04-01T01:43:52.774Z,48.46
2019-04-01T01:44:52.782Z,48.75
2019-04-01T01:45:52.782Z,48.66
2019-04-01T01:46:52.740Z,48.77
2019-04-01T01:47:52.737Z,48.97
2019-04-01T01:48:52.718Z,49.29
2019-04-01T01:49:52.733Z,48.77
2019-04-01T01:50:52.698Z,49.18
2019-04-01T01:51:52.715Z,48.77
2019-04-01T01:52:52.672Z,48.36
2019-04-01T01:53:52.688Z,49.29
2019-04-01T01:54:52.696Z,49.49
2019-04-01T01:55:52.647Z,49.70
2019-04-01T01:56:52.632Z,49.80
2019-04-01T01:57:52.642Z,49.29
2019-04-01T01:58:52.615Z,50.03
2019-04-01T01:59:52.623Z,49.80
2019-04-01T02:00:52.584Z,50.11
2019-04-01T02:01:52.586Z,49.91
2019-04-01T02:02:52.561Z,50.01
2019-04-01T02:03:52.572Z,50.42
2019-04-01T02:04:52.558Z,50.11
2019-04-01T02:05:52.530Z,49.91
2019-04-01T02:06:52.521Z,50.52
2019-04-01T02:07:52.543Z,50.42
2019-04-01T02:08:52.501Z,50.52
2019-04-01T02:09:52.699Z,50.73
2019-04-01T02:10:52.532Z,50.21
2019-04-01T02:11:52.471Z,50.11
2019-04-01T02:12:52.487Z,50.63
2019-04-01T02:13:52.447Z,50.63
2019-04-01T02:14:52.479Z,50.40
2019-04-01T02:15:52.431Z,50.60
2019-04-01T02:16:52.454Z,50.40
2019-04-01T02:17:52.408Z,50.32
2019-04-01T02:18:52.383Z,51.23
2019-04-01T02:19:52.391Z,50.92
2019-04-01T02:20:52.379Z,51.33
2019-04-01T02:21:52.394Z,50.92
2019-04-01T02:22:52.343Z,51.33
2019-04-01T02:23:52.323Z,51.56
2019-04-01T02:24:52.348Z,51.23
2019-04-01T02:25:52.325Z,51.33
2019-04-01T02:26:52.300Z,51.04
2019-04-01T02:27:52.301Z,51.74
2019-04-01T02:28:52.275Z,51.54
2019-04-01T02:29:52.291Z,51.33
2019-04-01T02:30:52.256Z,51.43
2019-04-01T02:31:52.258Z,51.74
2019-04-01T02:32:52.227Z,51.43
2019-04-01T02:33:52.253Z,51.23
2019-04-01T02:34:52.223Z,51.23
2019-04-01T02:35:52.188Z,51.54
2019-04-01T02:36:52.185Z,51.33
2019-04-01T02:37:52.174Z,51.23
2019-04-01T02:38:52.169Z,51.64
2019-04-01T02:39:52.201Z,51.33
2019-04-01T02:40:52.136Z,51.64
2019-04-01T02:41:52.123Z,51.02
2019-04-01T02:42:52.117Z,51.33
2019-04-01T02:43:52.119Z,51.54
2019-04-01T02:44:52.096Z,51.64
2019-04-01T02:45:52.124Z,51.12
2019-04-01T02:46:52.077Z,51.23
2019-04-01T02:47:52.068Z,51.23
2019-04-01T02:48:52.053Z,51.43
2019-04-01T02:49:52.045Z,51.23
2019-04-01T02:50:52.053Z,51.74
2019-04-01T02:51:52.018Z,51.64
2019-04-01T02:52:52.009Z,51.74
2019-04-01T02:53:52.007Z,51.54
2019-04-01T02:54:52.084Z,51.12
2019-04-01T02:55:51.991Z,51.43
2019-04-01T02:56:51.960Z,51.25
2019-04-01T02:57:51.955Z,51.64
2019-04-01T02:58:51.934Z,51.45
2019-04-01T02:59:51.937Z,51.25
2019-04-01T03:00:51.947Z,51.56
2019-04-01T03:01:51.949Z,51.66
2019-04-01T03:02:51.893Z,52.08
2019-04-01T03:03:51.885Z,51.87
2019-04-01T03:04:51.879Z,51.97
2019-04-01T03:05:51.882Z,52.70
2019-04-01T03:06:51.857Z,52.28
2019-04-01T03:07:51.839Z,51.35
2019-04-01T03:08:51.829Z,51.87
2019-04-01T03:09:51.830Z,51.35
2019-04-01T03:10:51.838Z,52.49
2019-04-01T03:11:51.792Z,52.28
2019-04-01T03:12:51.803Z,52.08
2019-04-01T03:13:51.767Z,51.87
2019-04-01T03:14:51.776Z,52.39
2019-04-01T03:15:51.773Z,52.39
2019-04-01T03:16:51.742Z,52.08
2019-04-01T03:17:51.740Z,52.18
2019-04-01T03:18:51.755Z,51.87
2019-04-01T03:19:51.699Z,51.97
2019-04-01T03:20:51.709Z,52.18
2019-04-01T03:21:51.713Z,52.08
2019-04-01T03:22:51.673Z,52.10
2019-04-01T03:23:51.684Z,52.08
2019-04-01T03:24:51.648Z,51.89
2019-04-01T03:25:51.681Z,52.20
2019-04-01T03:26:51.638Z,52.62
2019-04-01T03:27:51.625Z,52.18
2019-04-01T03:28:51.612Z,52.00
2019-04-01T03:29:51.598Z,52.20
2019-04-01T03:30:51.598Z,51.97
2019-04-01T03:31:51.593Z,52.28
2019-04-01T03:32:51.563Z,51.89
2019-04-01T03:33:51.555Z,52.00
2019-04-01T03:34:51.539Z,52.10
2019-04-01T03:35:51.516Z,51.97
2019-04-01T03:36:51.558Z,52.18
2019-04-01T03:37:51.507Z,52.00
2019-04-01T03:38:51.495Z,51.97
2019-04-01T03:39:51.486Z,52.08
2019-04-01T03:40:51.490Z,52.00
2019-04-01T03:41:51.497Z,51.87
2019-04-01T03:42:51.450Z,51.87
2019-04-01T03:43:51.438Z,51.97
2019-04-01T03:44:55.148Z,52.08
2019-04-01T03:45:51.421Z,52.72
2019-04-01T03:46:51.577Z,52.83
2019-04-01T03:47:51.397Z,52.83
2019-04-01T03:48:51.376Z,52.72
2019-04-01T03:49:51.372Z,52.31
2019-04-01T03:50:51.381Z,53.23
2019-04-01T03:51:51.367Z,53.03
2019-04-01T03:52:51.331Z,58.82
2019-04-01T03:53:51.336Z,64.58
2019-04-01T03:54:51.313Z,64.48
2019-04-01T03:55:51.306Z,65.41
2019-04-01T03:56:51.320Z,61.69
2019-04-01T03:57:51.292Z,60.31
2019-04-01T03:58:51.269Z,58.97
2019-04-01T03:59:51.266Z,56.81
2019-04-01T04:00:51.262Z,56.67
2019-04-01T04:01:51.264Z,54.61
2019-04-01T04:02:51.227Z,54.50
2019-04-01T04:03:51.218Z,54.09
2019-04-01T04:04:51.199Z,53.76
2019-04-01T04:05:51.186Z,53.34
2019-04-01T04:06:51.225Z,53.96
2019-04-01T04:07:51.182Z,51.67
2019-04-01T04:08:51.165Z,50.04
2019-04-01T04:09:51.147Z,50.35
2019-04-01T04:10:51.141Z,49.84
2019-04-01T04:11:51.149Z,50.48
2019-04-01T04:12:51.161Z,51.31
2019-04-01T04:13:51.100Z,51.41
2019-04-01T04:14:51.751Z,51.31
2019-04-01T04:15:51.106Z,51.54
2019-04-01T04:16:51.123Z,51.43
2019-04-01T04:17:51.062Z,51.54
2019-04-01T04:18:51.050Z,51.64
2019-04-01T04:19:51.050Z,51.54
2019-04-01T04:20:51.033Z,51.23
2019-04-01T04:21:51.053Z,52.59
2019-04-01T04:22:51.009Z,52.18
2019-04-01T04:23:50.997Z,51.97
2019-04-01T04:24:50.980Z,52.08
2019-04-01T04:25:50.973Z,52.00
2019-04-01T04:26:50.974Z,53.00
2019-04-01T04:27:51.024Z,53.11
2019-04-01T04:28:50.942Z,51.97
2019-04-01T04:29:50.927Z,52.31
2019-04-01T04:30:50.917Z,52.28
2019-04-01T04:31:50.919Z,53.00
2019-04-01T04:32:50.940Z,53.03
2019-04-01T04:33:50.884Z,53.13
2019-04-01T04:34:50.863Z,53.55
2019-04-01T04:35:50.886Z,53.44
2019-04-01T04:36:50.848Z,53.23
2019-04-01T04:37:50.851Z,53.44
2019-04-01T04:38:50.824Z,53.88
2019-04-01T04:39:50.916Z,54.09
2019-04-01T04:40:50.804Z,54.50
2019-04-01T04:41:50.788Z,54.40
2019-04-01T04:42:50.803Z,54.50
2019-04-01T04:43:50.772Z,54.19
2019-04-01T04:44:50.752Z,54.50
2019-04-01T04:45:50.748Z,54.30
2019-04-01T04:46:50.743Z,53.91
2019-04-01T04:47:50.764Z,53.91
2019-04-01T04:48:50.718Z,54.74
2019-04-01T04:49:50.703Z,54.53
2019-04-01T04:50:50.689Z,54.09
2019-04-01T04:51:50.675Z,54.53
2019-04-01T04:52:50.714Z,54.84
2019-04-01T04:53:50.657Z,54.74
2019-04-01T04:54:50.645Z,54.53
2019-04-01T04:55:50.638Z,54.53
2019-04-01T04:56:50.639Z,54.53
2019-04-01T04:57:50.636Z,54.32
2019-04-01T04:58:50.595Z,54.53
2019-04-01T04:59:50.599Z,54.84
2019-04-01T05:00:50.571Z,55.05
2019-04-01T05:01:50.579Z,54.63
2019-04-01T05:02:50.578Z,54.84
2019-04-01T05:03:50.543Z,55.46
2019-04-01T05:04:50.531Z,55.05
2019-04-01T05:05:50.538Z,54.84
2019-04-01T05:06:50.508Z,55.56
2019-04-01T05:07:50.508Z,54.94
2019-04-01T05:08:50.483Z,54.94
2019-04-01T05:09:50.477Z,55.18
2019-04-01T05:10:50.493Z,55.07
2019-04-01T05:11:50.443Z,55.18
2019-04-01T05:12:50.461Z,55.28
2019-04-01T05:13:50.534Z,55.90
2019-04-01T05:14:50.422Z,54.97
2019-04-01T05:15:50.427Z,55.38
2019-04-01T05:16:50.396Z,55.28
2019-04-01T05:17:50.418Z,55.38
2019-04-01T05:18:50.375Z,55.38
2019-04-01T05:19:50.402Z,55.38
2019-04-01T05:20:50.360Z,55.38
2019-04-01T05:21:50.339Z,55.38
2019-04-01T05:22:50.356Z,55.35
2019-04-01T05:23:50.326Z,55.46
2019-04-01T05:24:50.886Z,55.25
2019-04-01T05:25:50.296Z,55.35
2019-04-01T05:26:50.294Z,55.25
2019-04-01T05:27:50.293Z,54.97
2019-04-01T05:28:50.272Z,55.38
2019-04-01T05:29:50.250Z,55.28
2019-04-01T05:30:50.236Z,55.35
2019-04-01T05:31:50.239Z,55.18
2019-04-01T05:32:50.265Z,55.05
2019-04-01T05:33:55.532Z,55.05
2019-04-01T05:34:51.192Z,55.07
2019-04-01T05:35:50.194Z,55.05
2019-04-01T05:36:50.175Z,55.18
2019-04-01T05:37:50.171Z,55.38
2019-04-01T05:38:50.228Z,55.28
2019-04-01T05:39:50.152Z,55.49
2019-04-01T05:40:50.255Z,55.07
2019-04-01T05:41:50.234Z,54.76
2019-04-01T05:42:50.102Z,55.28
2019-04-01T05:43:50.160Z,55.18
2019-04-01T05:44:50.128Z,54.76
2019-04-01T05:45:50.105Z,55.05
2019-04-01T05:46:50.124Z,55.05
2019-04-01T05:47:50.056Z,55.05
2019-04-01T05:48:50.068Z,54.53
2019-04-01T05:49:50.034Z,54.63
2019-04-01T05:50:50.020Z,54.22
2019-04-01T05:51:50.009Z,54.53
2019-04-01T05:52:50.008Z,54.22
2019-04-01T05:53:50.040Z,54.43
2019-04-01T05:54:49.968Z,54.74
2019-04-01T05:55:49.962Z,54.22
2019-04-01T05:56:49.984Z,54.43
2019-04-01T05:57:49.971Z,54.53
2019-04-01T05:58:50.017Z,54.74
2019-04-01T05:59:49.934Z,54.63
2019-04-01T06:00:49.902Z,54.74
2019-04-01T06:01:49.903Z,54.43
2019-04-01T06:02:49.925Z,53.91
2019-04-01T06:03:49.891Z,53.49
2019-04-01T06:04:49.866Z,53.49
2019-04-01T06:05:49.848Z,53.39
2019-04-01T06:06:49.852Z,53.39
2019-04-01T06:07:49.847Z,53.70
2019-04-01T06:08:49.849Z,53.18
2019-04-01T06:09:49.803Z,53.67
2019-04-01T06:10:49.793Z,52.95
2019-04-01T06:11:49.781Z,53.16
2019-04-01T06:12:49.782Z,53.57
2019-04-01T06:13:49.788Z,57.71
2019-04-01T06:14:49.796Z,58.72
2019-04-01T06:15:49.748Z,58.79
2019-04-01T06:16:49.726Z,58.69
2019-04-01T06:17:49.725Z,55.28
2019-04-01T06:18:49.722Z,54.63
2019-04-01T06:19:49.691Z,53.29
2019-04-01T06:20:49.696Z,52.78
2019-04-01T06:21:49.670Z,53.27
2019-04-01T06:22:49.761Z,51.92
2019-04-01T06:23:49.699Z,51.82
2019-04-01T06:24:49.640Z,52.52
2019-04-01T06:25:49.632Z,51.59
2019-04-01T06:26:49.621Z,52.52
2019-04-01T06:27:49.602Z,51.07
2019-04-01T06:28:49.611Z,50.35
2019-04-01T06:29:49.607Z,51.15
2019-04-01T06:30:49.571Z,51.15
2019-04-01T06:31:49.555Z,51.05
2019-04-01T06:32:49.542Z,50.23
2019-04-01T06:33:49.542Z,50.82
2019-04-01T06:34:52.986Z,50.31
2019-04-01T06:35:49.524Z,50.10
2019-04-01T06:36:49.503Z,48.55
2019-04-01T06:37:49.486Z,47.52
2019-04-01T06:38:49.492Z,47.81
2019-04-01T06:39:49.493Z,47.91
2019-04-01T06:40:49.501Z,48.24
2019-04-01T06:41:49.466Z,47.81
2019-04-01T06:42:49.442Z,48.14
2019-04-01T06:43:49.434Z,48.76
2019-04-01T06:44:49.433Z,48.24
2019-04-01T06:45:49.415Z,48.45
2019-04-01T06:46:49.426Z,47.65
2019-04-01T06:47:49.385Z,48.68
2019-04-01T06:48:49.366Z,47.96
2019-04-01T06:49:49.377Z,48.78
2019-04-01T06:50:49.385Z,48.68
2019-04-01T06:51:49.352Z,48.58
2019-04-01T06:52:49.335Z,48.47
2019-04-01T06:53:49.342Z,48.68
2019-04-01T06:54:49.329Z,48.47
2019-04-01T06:55:49.294Z,48.45
2019-04-01T06:56:49.291Z,48.35
2019-04-01T06:57:49.279Z,48.24
2019-04-01T06:58:49.268Z,47.83
2019-04-01T06:59:49.285Z,47.63
2019-04-01T07:00:49.281Z,47.94
2019-04-01T07:01:49.225Z,47.52
2019-04-01T07:02:49.216Z,47.73
2019-04-01T07:03:49.212Z,47.42
2019-04-01T07:04:49.260Z,47.42
2019-04-01T07:05:49.196Z,47.42
2019-04-01T07:06:49.177Z,47.42
2019-04-01T07:07:49.170Z,47.01
2019-04-01T07:08:49.167Z,47.52
2019-04-01T07:09:50.845Z,47.21
2019-04-01T07:10:49.152Z,47.01
2019-04-01T07:11:49.126Z,47.42
2019-04-01T07:12:49.132Z,46.91
2019-04-01T07:13:49.097Z,47.01
2019-04-01T07:14:49.171Z,46.70
2019-04-01T07:15:49.097Z,46.08
2019-04-01T07:16:49.105Z,45.95
2019-04-01T07:17:49.054Z,45.85
2019-04-01T07:18:49.063Z,45.75
2019-04-01T07:19:49.030Z,45.85
2019-04-01T07:20:49.075Z,47.91
2019-04-01T07:21:49.047Z,46.16
2019-04-01T07:22:49.001Z,45.32
2019-04-01T07:23:48.994Z,44.18
2019-04-01T07:24:49.008Z,44.49
2019-04-01T07:25:48.988Z,43.36
2019-04-01T07:26:48.970Z,44.29
2019-04-01T07:27:48.948Z,44.89
2019-04-01T07:28:48.933Z,43.85
2019-04-01T07:29:48.923Z,43.44
2019-04-01T07:30:48.934Z,43.24
2019-04-01T07:31:48.900Z,43.54
2019-04-01T07:32:48.909Z,43.34
2019-04-01T07:33:48.882Z,43.52
2019-04-01T07:34:48.870Z,43.75
2019-04-01T07:35:48.879Z,43.63
2019-04-01T07:36:48.844Z,43.01
2019-04-01T07:37:48.841Z,42.80
2019-04-01T07:38:48.841Z,42.80
2019-04-01T07:39:48.819Z,43.12
2019-04-01T07:40:48.870Z,43.12
2019-04-01T07:41:48.798Z,43.32
2019-04-01T07:42:48.779Z,43.12
2019-04-01T07:43:48.778Z,42.91
2019-04-01T07:44:48.784Z,42.37
2019-04-01T07:45:48.784Z,42.07
2019-04-01T07:46:48.737Z,42.17
2019-04-01T07:47:51.521Z,41.94
2019-04-01T07:48:48.717Z,42.25
2019-04-01T07:49:48.799Z,41.63
2019-04-01T07:50:48.732Z,41.93
2019-04-01T07:51:48.686Z,40.48
2019-04-01T07:52:48.672Z,40.59
2019-04-01T07:53:48.661Z,40.79
2019-04-01T07:54:48.651Z,40.69
2019-04-01T07:55:48.650Z,40.28
2019-04-01T07:56:48.641Z,41.31
2019-04-01T07:57:48.617Z,40.69
2019-04-01T07:58:48.600Z,40.67
2019-04-01T07:59:48.585Z,40.36
2019-04-01T08:00:48.600Z,39.85
2019-04-01T08:01:48.600Z,38.92
2019-04-01T08:02:49.115Z,39.64
2019-04-01T08:03:48.544Z,38.41
2019-04-01T08:04:48.534Z,38.49
2019-04-01T08:05:48.536Z,38.49
2019-04-01T08:06:48.537Z,38.39
2019-04-01T08:07:48.496Z,38.70
2019-04-01T08:08:48.493Z,38.39
2019-04-01T08:09:48.475Z,38.37
2019-04-01T08:10:48.469Z,38.48
2019-04-01T08:11:50.244Z,38.89
2019-04-01T08:12:48.464Z,37.96
2019-04-01T08:13:48.431Z,38.99
2019-04-01T08:14:48.438Z,38.99
2019-04-01T08:15:48.418Z,39.71
2019-04-01T08:16:48.421Z,39.50
2019-04-01T08:17:48.396Z,38.37
2019-04-01T08:18:48.376Z,39.09
2019-04-01T08:19:48.619Z,38.99
2019-04-01T08:20:48.350Z,38.37
2019-04-01T08:21:48.358Z,38.67
2019-04-01T08:22:48.333Z,38.87
2019-04-01T08:23:48.336Z,38.87
2019-04-01T08:24:48.313Z,37.95
2019-04-01T08:25:48.296Z,38.46
2019-04-01T08:26:48.309Z,37.23
2019-04-01T08:27:48.272Z,38.13
2019-04-01T08:28:48.273Z,37.32
2019-04-01T08:29:48.247Z,37.64
2019-04-01T08:30:48.349Z,37.74
2019-04-01T08:31:48.440Z,37.64
2019-04-01T08:32:48.354Z,37.23
2019-04-01T08:33:50.227Z,37.73
2019-04-01T08:34:48.244Z,37.62
2019-04-01T08:35:48.186Z,37.83
2019-04-01T08:36:48.257Z,37.41
2019-04-01T08:37:55.328Z,37.21
2019-04-01T08:38:48.203Z,37.32
2019-04-01T08:39:48.261Z,37.21
2019-04-01T08:40:48.189Z,37.83
2019-04-01T08:41:48.166Z,37.01
2019-04-01T08:42:49.129Z,36.49
2019-04-01T08:43:48.106Z,36.90
2019-04-01T08:44:48.665Z,36.99
2019-04-01T08:45:48.090Z,35.96
2019-04-01T08:46:48.092Z,35.76
2019-04-01T08:47:48.058Z,35.46
2019-04-01T08:48:48.053Z,34.92
2019-04-01T08:49:48.040Z,35.33
2019-04-01T08:50:48.022Z,35.66
2019-04-01T08:51:48.044Z,35.44
2019-04-01T08:52:47.990Z,36.17
2019-04-01T08:53:47.979Z,36.25
2019-04-01T08:54:47.981Z,35.96
2019-04-01T08:55:48.672Z,35.74
2019-04-01T08:56:47.979Z,34.82
2019-04-01T08:57:47.934Z,35.03
2019-04-01T08:58:47.927Z,35.64
2019-04-01T08:59:47.913Z,35.11
2019-04-01T09:00:47.918Z,34.50
2019-04-01T09:01:47.933Z,34.48
2019-04-01T09:02:47.910Z,34.67
2019-04-01T09:03:47.875Z,33.75
2019-04-01T09:04:47.862Z,32.83
2019-04-01T09:05:47.885Z,32.83
2019-04-01T09:06:47.874Z,33.33
2019-04-01T09:07:47.846Z,32.81
2019-04-01T09:08:47.822Z,33.43
2019-04-01T09:09:47.809Z,33.12
2019-04-01T09:10:47.803Z,33.84
2019-04-01T09:11:47.797Z,32.71
2019-04-01T09:12:47.807Z,32.09
2019-04-01T09:13:47.789Z,33.11
2019-04-01T09:14:47.747Z,32.90
2019-04-01T09:15:47.737Z,32.07
2019-04-01T09:16:47.755Z,31.56
2019-04-01T09:17:47.737Z,32.48
2019-04-01T09:18:47.713Z,31.56
2019-04-01T09:19:47.779Z,31.54
2019-04-01T09:20:47.686Z,31.03
2019-04-01T09:21:47.675Z,30.71
2019-04-01T09:22:47.675Z,30.71
2019-04-01T09:23:47.649Z,30.61
2019-04-01T09:24:47.653Z,30.51
2019-04-01T09:25:47.619Z,31.22
2019-04-01T09:26:47.619Z,30.61
2019-04-01T09:27:47.620Z,31.22
2019-04-01T09:28:47.589Z,30.51
2019-04-01T09:29:47.581Z,30.80
2019-04-01T09:30:47.576Z,29.58
2019-04-01T09:31:47.576Z,29.77
2019-04-01T09:32:47.577Z,29.46
2019-04-01T09:33:47.533Z,29.25
2019-04-01T09:34:47.529Z,28.85
2019-04-01T09:35:47.528Z,29.24
2019-04-01T09:36:47.508Z,28.83
2019-04-01T09:37:47.515Z,28.63
2019-04-01T09:38:47.482Z,29.04
2019-04-01T09:39:47.480Z,29.43
2019-04-01T09:40:47.469Z,29.33
2019-04-01T09:41:47.453Z,28.72
2019-04-01T09:42:47.454Z,29.23
2019-04-01T09:43:47.498Z,29.13
2019-04-01T09:44:47.412Z,29.23
2019-04-01T09:45:47.406Z,28.82
2019-04-01T09:46:49.080Z,29.01
2019-04-01T09:47:47.396Z,28.89
2019-04-01T09:48:47.373Z,28.69
2019-04-01T09:49:47.401Z,28.39
2019-04-01T09:50:47.353Z,28.38
2019-04-01T09:51:48.928Z,27.45
2019-04-01T09:52:47.356Z,26.52
2019-04-01T09:53:47.325Z,26.62
2019-04-01T09:54:47.304Z,27.03
2019-04-01T09:55:47.312Z,26.62
2019-04-01T09:56:47.283Z,26.72
2019-04-01T09:57:47.345Z,26.82
2019-04-01T09:58:47.268Z,26.92
2019-04-01T09:59:47.269Z,26.52
2019-04-01T10:00:47.233Z,27.03
2019-04-01T10:01:47.227Z,27.13
2019-04-01T10:02:47.227Z,27.23
2019-04-01T10:03:47.198Z,28.23
2019-04-01T10:04:47.202Z,27.92
2019-04-01T10:05:47.186Z,26.58
2019-04-01T10:06:47.172Z,28.00
2019-04-01T10:07:47.391Z,27.37
2019-04-01T10:08:47.146Z,25.63
2019-04-01T10:09:47.154Z,25.84
2019-04-01T10:10:47.129Z,24.20
2019-04-01T10:11:47.125Z,24.40
2019-04-01T10:12:47.130Z,23.55
2019-04-01T10:13:47.101Z,23.00
2019-04-01T10:14:47.076Z,22.16
2019-04-01T10:15:47.076Z,19.90
2019-04-01T10:16:47.071Z,18.95
2019-04-01T10:17:47.058Z,18.21
2019-04-01T10:18:47.048Z,16.69
2019-04-01T10:19:47.260Z,15.67
2019-04-01T10:20:47.021Z,14.95
2019-04-01T10:21:47.031Z,14.03
2019-04-01T10:22:47.024Z,13.41
2019-04-01T10:23:46.988Z,13.60
2019-04-01T10:24:47.003Z,12.99
2019-04-01T10:25:47.032Z,12.18
2019-04-01T10:26:46.957Z,11.78
2019-04-01T10:27:46.994Z,11.07
2019-04-01T10:28:46.924Z,10.76
2019-04-01T10:29:46.912Z,10.96
2019-04-01T10:30:46.916Z,10.35
2019-04-01T10:31:46.910Z,10.44
2019-04-01T10:32:46.921Z,10.73
2019-04-01T10:33:46.866Z,10.44
2019-04-01T10:34:46.863Z,10.24
2019-04-01T10:35:46.850Z,10.44
2019-04-01T10:36:46.854Z,10.93
2019-04-01T10:37:46.851Z,10.04
2019-04-01T10:38:47.152Z,9.54
2019-04-01T10:39:46.807Z,9.73
2019-04-01T10:40:46.797Z,9.33
2019-04-01T10:41:46.788Z,8.83
2019-04-01T10:42:46.786Z,8.53
2019-04-01T10:43:46.806Z,9.02
2019-04-01T10:44:46.781Z,8.73
2019-04-01T10:45:46.751Z,9.22
2019-04-01T10:46:46.746Z,8.34
2019-04-01T10:47:46.794Z,8.33
2019-04-01T10:48:46.773Z,8.73
2019-04-01T10:49:46.783Z,8.63
2019-04-01T10:50:46.756Z,9.31
2019-04-01T10:51:46.689Z,9.01
2019-04-01T10:52:46.701Z,8.42
2019-04-01T10:53:46.702Z,8.22
2019-04-01T10:54:46.672Z,8.03
2019-04-01T10:55:46.777Z,8.12
2019-04-01T10:56:46.676Z,8.23
2019-04-01T10:57:46.652Z,8.23
2019-04-01T10:58:46.699Z,8.14
2019-04-01T10:59:46.626Z,8.14
2019-04-01T11:00:46.640Z,8.14
2019-04-01T11:01:46.588Z,9.12
2019-04-01T11:02:49.822Z,8.83
2019-04-01T11:03:46.602Z,9.03
2019-04-01T11:04:46.600Z,8.94
2019-04-01T11:05:46.552Z,8.34
2019-04-01T11:06:46.607Z,9.33
2019-04-01T11:07:46.602Z,8.54
2019-04-01T11:08:46.550Z,8.65
2019-04-01T11:09:46.537Z,9.24
2019-04-01T11:10:46.506Z,9.73
2019-04-01T11:11:46.508Z,9.44
2019-04-01T11:12:46.496Z,8.45
2019-04-01T11:13:46.530Z,8.65
2019-04-01T11:14:46.470Z,8.06
2019-04-01T11:15:46.472Z,8.46
2019-04-01T11:16:46.591Z,8.85
2019-04-01T11:17:46.431Z,8.65
2019-04-01T11:18:46.445Z,8.65
2019-04-01T11:19:46.423Z,8.75
2019-04-01T11:20:46.405Z,8.15
2019-04-01T11:21:46.415Z,8.06
2019-04-01T11:22:46.388Z,7.76
2019-04-01T11:23:46.455Z,8.25
2019-04-01T11:24:46.370Z,8.25
2019-04-01T11:25:46.359Z,8.64
2019-04-01T11:26:46.348Z,8.74
2019-04-01T11:27:46.342Z,8.74
2019-04-01T11:28:46.367Z,8.94
2019-04-01T11:29:46.325Z,9.04
2019-04-01T11:30:46.385Z,9.03
2019-04-01T11:31:46.344Z,8.74
2019-04-01T11:32:46.364Z,8.45
2019-04-01T11:33:46.315Z,8.74
2019-04-01T11:34:46.308Z,8.64
2019-04-01T11:35:46.280Z,8.34
2019-04-01T11:36:46.286Z,8.73
2019-04-01T11:37:46.321Z,8.72
2019-04-01T11:38:46.292Z,8.13
2019-04-01T11:39:46.258Z,8.22
2019-04-01T11:40:46.260Z,7.93
2019-04-01T11:41:46.255Z,7.83
2019-04-01T11:42:46.264Z,7.92
2019-04-01T11:43:46.215Z,7.53
2019-04-01T11:44:46.238Z,7.53
2019-04-01T11:45:46.202Z,7.62
2019-04-01T11:46:46.187Z,7.62
2019-04-01T11:47:46.144Z,8.01
2019-04-01T11:48:46.153Z,8.01
2019-04-01T11:49:46.125Z,7.53
2019-04-01T11:50:47.927Z,7.14
2019-04-01T11:51:46.147Z,6.15
2019-04-01T11:52:46.109Z,6.35
2019-04-01T11:53:46.146Z,5.68
2019-04-01T11:54:46.074Z,5.97
2019-04-01T11:55:46.061Z,6.85
2019-04-01T11:56:46.049Z,6.96
2019-04-01T11:57:46.073Z,7.65
2019-04-01T11:58:46.055Z,7.17
2019-04-01T11:59:46.015Z,7.76
2019-04-01T12:00:46.004Z,7.95
2019-04-01T12:01:47.392Z,8.05
2019-04-01T12:02:46.690Z,7.86
2019-04-01T12:03:45.996Z,7.66
2019-04-01T12:04:45.961Z,8.06
2019-04-01T12:05:45.965Z,7.56
2019-04-01T12:06:45.945Z,7.86
2019-04-01T12:07:45.940Z,6.19
2019-04-01T12:08:46.188Z,6.58
2019-04-01T12:09:45.928Z,7.07
2019-04-01T12:10:45.901Z,6.29
2019-04-01T12:11:45.897Z,7.77
2019-04-01T12:12:45.875Z,7.97
2019-04-01T12:13:45.885Z,7.87
2019-04-01T12:14:45.868Z,7.48
2019-04-01T12:15:45.846Z,7.49
2019-04-01T12:16:45.870Z,8.08
2019-04-01T12:17:45.825Z,8.98
2019-04-01T12:18:45.845Z,8.59
2019-04-01T12:19:45.921Z,9.69
2019-04-01T12:20:45.814Z,9.40
2019-04-01T12:21:45.784Z,10.09
2019-04-01T12:22:46.273Z,10.10
2019-04-01T12:23:45.774Z,10.50
2019-04-01T12:24:45.755Z,10.61
2019-04-01T12:25:45.749Z,10.52
2019-04-01T12:26:46.373Z,11.33
2019-04-01T12:27:45.726Z,11.95
2019-04-01T12:28:45.749Z,11.86
2019-04-01T12:29:48.211Z,12.27
2019-04-01T12:30:45.715Z,12.68
2019-04-01T12:31:45.694Z,12.98
2019-04-01T12:32:45.677Z,13.29
2019-04-01T12:33:45.672Z,13.30
2019-04-01T12:34:46.675Z,14.12
2019-04-01T12:35:45.625Z,14.12
2019-04-01T12:36:45.629Z,14.22
2019-04-01T12:37:46.022Z,14.01
2019-04-01T12:38:45.619Z,14.72
2019-04-01T12:39:45.597Z,15.13
2019-04-01T12:40:45.576Z,15.34
2019-04-01T12:41:45.573Z,15.15
2019-04-01T12:42:46.365Z,16.56
2019-04-01T12:43:45.572Z,15.77
2019-04-01T12:44:45.531Z,16.67
2019-04-01T12:45:45.539Z,17.69
2019-04-01T12:46:45.529Z,18.40
2019-04-01T12:47:45.505Z,18.90
2019-04-01T12:48:45.509Z,18.31
2019-04-01T12:49:45.481Z,18.72
2019-04-01T12:50:45.466Z,19.53
2019-04-01T12:51:45.460Z,19.23
2019-04-01T12:52:46.284Z,20.24
2019-04-01T12:53:45.974Z,20.14
2019-04-01T12:54:45.427Z,20.05
2019-04-01T12:55:45.420Z,20.05
2019-04-01T12:56:45.397Z,20.16